Wind From: 11-12-2017 04:25 Until: 16:00 warning for: Wind Level: Orange info button

Power and phone distribution networks may be disrupted for relatively long periods., Roofs and chimneys can be damaged. , Tree branches may break. , Vehicles can be deported. , Traffic may be disrupted, particularly on secondary roads in forest areas. Limit your trips. , Limit your speed in highway driving, especially if you drive a vehicle or hitch sensitive to wind. , Do not go for walks in forests or along the coast., In town, be vigilant against possible falling objects., Do not work on roofs and do not touch any electrical line fallen on the ground., Store or secure sensitive objects to wind or likely to be damaged., Always install power generators outside buildings. 


Meteo18 Weather Cam more information Meteo18 Weather Cam


Thunder radar more information blitzortung!


Rain radar more information rain snow radar


Visit our other weather sites:

Template documentation
and downloads

And another site



Weather Underground History page Text

Daily Summary for May 1, 2016 Units:  Metric    English   Both
« Previous Day
Next Day »
Daily Weekly Monthly Yearly Custom
  High: Low: Average:
Temperature: 14.4 °C 2.2 °C 7.6 °C
Dew Point: 4.6 °C 1.2 °C 2.9 °C
Humidity: 94 % 44 % 74 %
Wind Speed: 25.7 km/h 0.0 km/h 6.9 km/h
Wind Gust: 33.8 km/h - -
Wind:- - ENE
Pressure: 1027.3 hPa 1023.2 hPa -
Precipitation: 0.3 mm    
Historical Graphs
 
 
Tabular Data for May 1, 2016
Time Temperature Dew Point Pressure Wind Wind Speed Wind Gust Humidity Rainfall Rate (Hourly)
00:02 4.8 °C 3.3 °C 1023.2 hPa ENE 3.2 km/h 11.3 km/h 90 % 0.0 mm
00:12 4.8 °C 3.3 °C 1023.2 hPa NE 1.6 km/h 9.7 km/h 90 % 0.0 mm
00:17 4.8 °C 3.5 °C 1023.2 hPa NE 3.2 km/h 11.3 km/h 91 % 0.0 mm
00:22 4.7 °C 3.4 °C 1023.2 hPa ENE 1.6 km/h 9.7 km/h 91 % 0.0 mm
00:32 4.8 °C 3.6 °C 1023.2 hPa NE 4.8 km/h 8.0 km/h 92 % 0.0 mm
00:37 4.9 °C 3.7 °C 1023.2 hPa NE 4.8 km/h 8.0 km/h 92 % 0.0 mm
00:42 4.9 °C 3.7 °C 1023.2 hPa ESE 1.6 km/h 12.9 km/h 92 % 0.0 mm
00:52 5.0 °C 3.7 °C 1023.2 hPa ENE 9.7 km/h 9.7 km/h 91 % 0.0 mm
01:02 4.9 °C 3.4 °C 1023.2 hPa NNE 8.0 km/h 16.1 km/h 90 % 0.0 mm
01:12 4.8 °C 3.3 °C 1023.2 hPa ESE 4.8 km/h 16.1 km/h 90 % 0.0 mm
01:17 4.7 °C 3.2 °C 1023.6 hPa ENE 1.6 km/h 16.1 km/h 90 % 0.0 mm
01:22 4.6 °C 3.1 °C 1023.6 hPa NE 8.0 km/h 17.7 km/h 90 % 0.0 mm
01:27 4.5 °C 3.0 °C 1023.6 hPa NNE 9.7 km/h 17.7 km/h 90 % 0.0 mm
01:32 4.4 °C 2.9 °C 1023.6 hPa NNE 11.3 km/h 17.7 km/h 90 % 0.0 mm
01:42 4.2 °C 2.9 °C 1023.6 hPa ESE 6.4 km/h 14.5 km/h 91 % 0.0 mm
01:52 4.1 °C 2.8 °C 1023.6 hPa NE 3.2 km/h 14.5 km/h 91 % 0.0 mm
01:57 3.9 °C 2.6 °C 1023.6 hPa East 6.4 km/h 14.5 km/h 91 % 0.0 mm
02:02 3.9 °C 2.6 °C 1023.6 hPa East 8.0 km/h 14.5 km/h 91 % 0.0 mm
02:07 3.8 °C 2.5 °C 1023.6 hPa NE 6.4 km/h 14.5 km/h 91 % 0.0 mm
02:12 3.8 °C 2.5 °C 1023.6 hPa NE 8.0 km/h 14.5 km/h 91 % 0.0 mm
02:17 3.7 °C 2.4 °C 1023.6 hPa NE 9.7 km/h 12.9 km/h 91 % 0.0 mm
02:22 3.8 °C 2.5 °C 1023.6 hPa ENE 8.0 km/h 12.9 km/h 91 % 0.0 mm
02:32 3.7 °C 2.4 °C 1023.6 hPa NE 9.7 km/h 17.7 km/h 91 % 0.0 mm
02:37 3.7 °C 2.4 °C 1023.6 hPa ESE 3.2 km/h 16.1 km/h 91 % 0.0 mm
02:42 3.6 °C 2.3 °C 1023.6 hPa ENE 8.0 km/h 16.1 km/h 91 % 0.0 mm
02:47 3.6 °C 2.3 °C 1023.6 hPa East 3.2 km/h 16.1 km/h 91 % 0.0 mm
02:52 3.5 °C 2.3 °C 1023.6 hPa NE 3.2 km/h 16.1 km/h 92 % 0.0 mm
02:57 3.5 °C 2.3 °C 1023.6 hPa NE 6.4 km/h 14.5 km/h 92 % 0.0 mm
03:02 3.5 °C 2.3 °C 1023.6 hPa East 6.4 km/h 16.1 km/h 92 % 0.0 mm
03:07 3.5 °C 2.3 °C 1023.6 hPa ENE 3.2 km/h 16.1 km/h 92 % 0.0 mm
03:17 3.3 °C 2.1 °C 1023.9 hPa NE 3.2 km/h 17.7 km/h 92 % 0.0 mm
03:22 3.3 °C 2.1 °C 1023.9 hPa NE 6.4 km/h 17.7 km/h 92 % 0.0 mm
03:32 3.3 °C 2.1 °C 1023.9 hPa East 6.4 km/h 16.1 km/h 92 % 0.0 mm
03:42 3.3 °C 2.1 °C 1023.9 hPa ENE 4.8 km/h 14.5 km/h 92 % 0.0 mm
03:52 3.2 °C 2.2 °C 1023.9 hPa ESE 1.6 km/h 11.3 km/h 93 % 0.0 mm
03:57 3.2 °C 2.2 °C 1023.9 hPa NE 3.2 km/h 11.3 km/h 93 % 0.0 mm
04:02 3.1 °C 2.1 °C 1023.9 hPa NE 4.8 km/h 12.9 km/h 93 % 0.0 mm
04:07 3.1 °C 2.1 °C 1023.9 hPa NE 4.8 km/h 12.9 km/h 93 % 0.0 mm
04:12 3.1 °C 2.1 °C 1023.9 hPa NE 1.6 km/h 16.1 km/h 93 % 0.0 mm
04:17 3.1 °C 2.1 °C 1023.9 hPa NE 9.7 km/h 16.1 km/h 93 % 0.0 mm
04:22 3.1 °C 2.1 °C 1023.9 hPa NNE 6.4 km/h 16.1 km/h 93 % 0.0 mm
04:27 3.0 °C 2.0 °C 1023.9 hPa East 1.6 km/h 12.9 km/h 93 % 0.0 mm
04:32 2.9 °C 1.9 °C 1023.9 hPa ENE 3.2 km/h 14.5 km/h 93 % 0.0 mm
04:37 2.9 °C 1.9 °C 1023.9 hPa NE 4.8 km/h 14.5 km/h 93 % 0.0 mm
04:42 2.9 °C 1.9 °C 1023.9 hPa NE 8.0 km/h 14.5 km/h 93 % 0.0 mm
04:47 2.9 °C 1.9 °C 1023.9 hPa East 3.2 km/h 14.5 km/h 93 % 0.0 mm
04:52 2.9 °C 1.9 °C 1024.3 hPa NE 9.7 km/h 17.7 km/h 93 % 0.0 mm
04:57 2.9 °C 1.9 °C 1024.3 hPa ENE 4.8 km/h 17.7 km/h 93 % 0.0 mm
05:02 2.9 °C 1.9 °C 1024.3 hPa NNE 9.7 km/h 14.5 km/h 93 % 0.0 mm
05:07 2.9 °C 1.7 °C 1024.3 hPa NE 6.4 km/h 14.5 km/h 92 % 0.0 mm
05:12 2.9 °C 1.9 °C 1024.3 hPa NE 11.3 km/h 14.5 km/h 93 % 0.0 mm
05:22 2.8 °C 1.8 °C 1024.3 hPa East 3.2 km/h 14.5 km/h 93 % 0.0 mm
05:27 2.7 °C 1.7 °C 1024.3 hPa NE 4.8 km/h 14.5 km/h 93 % 0.0 mm
05:32 2.7 °C 1.7 °C 1024.3 hPa NE 3.2 km/h 14.5 km/h 93 % 0.0 mm
05:37 2.6 °C 1.6 °C 1024.3 hPa NE 4.8 km/h 14.5 km/h 93 % 0.0 mm
05:42 2.6 °C 1.6 °C 1024.3 hPa NE 6.4 km/h 14.5 km/h 93 % 0.0 mm
05:52 2.7 °C 1.7 °C 1024.3 hPa NE 6.4 km/h 16.1 km/h 93 % 0.0 mm
05:57 2.6 °C 1.6 °C 1024.3 hPa ESE 6.4 km/h 16.1 km/h 93 % 0.0 mm
06:02 2.6 °C 1.6 °C 1024.3 hPa NNE 9.7 km/h 14.5 km/h 93 % 0.0 mm
06:07 2.6 °C 1.6 °C 1024.6 hPa NE 6.4 km/h 19.3 km/h 93 % 0.0 mm
06:12 2.5 °C 1.5 °C 1024.6 hPa NE 8.0 km/h 19.3 km/h 93 % 0.0 mm
06:17 2.4 °C 1.4 °C 1024.6 hPa ENE 6.4 km/h 19.3 km/h 93 % 0.0 mm
06:22 2.4 °C 1.4 °C 1024.6 hPa East 4.8 km/h 19.3 km/h 93 % 0.0 mm
06:27 2.3 °C 1.3 °C 1024.6 hPa East 6.4 km/h 19.3 km/h 93 % 0.0 mm
06:32 2.3 °C 1.3 °C 1024.6 hPa ESE 3.2 km/h 12.9 km/h 93 % 0.0 mm
06:37 2.3 °C 1.3 °C 1024.6 hPa ENE 3.2 km/h 12.9 km/h 93 % 0.0 mm
06:42 2.2 °C 1.2 °C 1024.9 hPa NE 3.2 km/h 14.5 km/h 93 % 0.0 mm
06:47 2.2 °C 1.3 °C 1024.9 hPa NNE 6.4 km/h 14.5 km/h 94 % 0.0 mm
06:52 2.3 °C 1.4 °C 1024.9 hPa NE 12.9 km/h 12.9 km/h 94 % 0.0 mm
06:57 2.3 °C 1.4 °C 1024.9 hPa East 6.4 km/h 12.9 km/h 94 % 0.0 mm
07:02 2.3 °C 1.4 °C 1024.9 hPa NE 3.2 km/h 12.9 km/h 94 % 0.0 mm
07:07 2.4 °C 1.4 °C 1024.9 hPa NE 6.4 km/h 14.5 km/h 93 % 0.0 mm
07:12 2.4 °C 1.4 °C 1024.9 hPa NE 9.7 km/h 14.5 km/h 93 % 0.0 mm
07:17 2.5 °C 1.5 °C 1024.9 hPa NNE 6.4 km/h 16.1 km/h 93 % 0.0 mm
07:22 2.6 °C 1.6 °C 1024.9 hPa NE 8.0 km/h 24.1 km/h 93 % 0.0 mm
07:27 2.6 °C 1.6 °C 1024.9 hPa NE 4.8 km/h 24.1 km/h 93 % 0.0 mm
07:32 2.7 °C 1.7 °C 1025.3 hPa NNE 9.7 km/h 24.1 km/h 93 % 0.0 mm
07:37 2.8 °C 1.8 °C 1025.3 hPa NE 4.8 km/h 16.1 km/h 93 % 0.0 mm
07:42 2.9 °C 1.9 °C 1025.3 hPa ESE 3.2 km/h 12.9 km/h 93 % 0.0 mm
07:47 3.1 °C 2.1 °C 1025.3 hPa NE 8.0 km/h 17.7 km/h 93 % 0.0 mm
07:52 3.2 °C 2.2 °C 1025.3 hPa NE 6.4 km/h 17.7 km/h 93 % 0.0 mm
07:57 3.3 °C 2.1 °C 1025.3 hPa NE 6.4 km/h 17.7 km/h 92 % 0.0 mm
08:02 3.4 °C 2.2 °C 1025.6 hPa NE 9.7 km/h 17.7 km/h 92 % 0.0 mm
08:07 3.6 °C 2.4 °C 1025.6 hPa NE 4.8 km/h 17.7 km/h 92 % 0.0 mm
08:12 3.6 °C 2.4 °C 1025.6 hPa ENE 9.7 km/h 17.7 km/h 92 % 0.0 mm
08:17 3.8 °C 2.5 °C 1025.6 hPa NNE 9.7 km/h 16.1 km/h 91 % 0.0 mm
08:22 3.9 °C 2.6 °C 1025.6 hPa NE 11.3 km/h 16.1 km/h 91 % 0.0 mm
08:32 4.2 °C 2.7 °C 1025.6 hPa NE 11.3 km/h 16.1 km/h 90 % 0.0 mm
08:37 4.4 °C 2.9 °C 1025.6 hPa NE 14.5 km/h 17.7 km/h 90 % 0.0 mm
08:42 4.6 °C 3.1 °C 1025.6 hPa NE 6.4 km/h 17.7 km/h 90 % 0.0 mm
08:47 4.8 °C 3.1 °C 1025.6 hPa ENE 9.7 km/h 14.5 km/h 89 % 0.0 mm
08:52 4.9 °C 3.2 °C 1025.6 hPa NE 19.3 km/h 19.3 km/h 89 % 0.0 mm
08:57 5.1 °C 3.4 °C 1025.6 hPa ENE 14.5 km/h 20.9 km/h 89 % 0.0 mm
09:02 5.2 °C 3.4 °C 1025.6 hPa NE 4.8 km/h 20.9 km/h 88 % 0.0 mm
09:07 5.3 °C 3.5 °C 1025.6 hPa NE 8.0 km/h 20.9 km/h 88 % 0.0 mm
09:12 5.5 °C 3.7 °C 1025.6 hPa NE 12.9 km/h 20.9 km/h 88 % 0.0 mm
09:17 5.8 °C 4.0 °C 1025.6 hPa ESE 6.4 km/h 20.9 km/h 88 % 0.0 mm
09:22 6.2 °C 4.0 °C 1025.6 hPa ENE 8.0 km/h 20.9 km/h 86 % 0.0 mm
09:27 6.3 °C 4.0 °C 1025.3 hPa ENE 11.3 km/h 25.7 km/h 85 % 0.0 mm
09:32 6.6 °C 4.1 °C 1025.6 hPa ENE 4.8 km/h 25.7 km/h 84 % 0.0 mm
09:37 6.8 °C 3.8 °C 1025.3 hPa NE 12.9 km/h 25.7 km/h 81 % 0.0 mm
09:42 7.1 °C 4.2 °C 1025.6 hPa ENE 12.9 km/h 20.9 km/h 82 % 0.0 mm
09:47 7.2 °C 4.0 °C 1025.6 hPa NNE 9.7 km/h 24.1 km/h 80 % 0.0 mm
09:52 7.4 °C 4.0 °C 1025.6 hPa NE 6.4 km/h 24.1 km/h 79 % 0.0 mm
09:57 7.6 °C 4.0 °C 1025.6 hPa ESE 11.3 km/h 24.1 km/h 78 % 0.3 mm
10:02 7.9 °C 4.3 °C 1025.6 hPa NE 9.7 km/h 24.1 km/h 78 % 0.3 mm
10:12 8.2 °C 3.8 °C 1025.6 hPa NE 11.3 km/h 25.7 km/h 74 % 0.3 mm
10:17 8.3 °C 3.7 °C 1025.6 hPa ENE 6.4 km/h 25.7 km/h 73 % 0.3 mm
10:22 8.3 °C 2.9 °C 1025.6 hPa NE 8.0 km/h 25.7 km/h 69 % 0.3 mm
10:27 8.7 °C 4.3 °C 1025.6 hPa ENE 9.7 km/h 29.0 km/h 74 % 0.3 mm
10:32 8.7 °C 2.9 °C 1025.6 hPa ENE 8.0 km/h 29.0 km/h 67 % 0.3 mm
10:37 8.7 °C 2.5 °C 1025.6 hPa ENE 6.4 km/h 29.0 km/h 65 % 0.3 mm
10:47 9.1 °C 3.9 °C 1026.0 hPa NNE 11.3 km/h 33.8 km/h 70 % 0.3 mm
10:52 9.2 °C 3.0 °C 1026.0 hPa NE 11.3 km/h 33.8 km/h 65 % 0.0 mm
10:57 9.4 °C 2.9 °C 1025.6 hPa ENE 8.0 km/h 27.4 km/h 64 % 0.0 mm
11:07 9.4 °C 2.9 °C 1026.0 hPa NNE 12.9 km/h 27.4 km/h 64 % 0.0 mm
11:12 9.6 °C 3.1 °C 1026.0 hPa NNE 12.9 km/h 27.4 km/h 64 % 0.0 mm
11:17 9.7 °C 2.3 °C 1026.0 hPa NE 17.7 km/h 25.7 km/h 60 % 0.0 mm
11:22 9.8 °C 3.5 °C 1026.0 hPa NE 14.5 km/h 30.6 km/h 65 % 0.0 mm
11:27 9.8 °C 3.3 °C 1025.6 hPa NE 12.9 km/h 30.6 km/h 64 % 0.0 mm
11:32 10.1 °C 4.0 °C 1025.6 hPa ESE 11.3 km/h 30.6 km/h 66 % 0.0 mm
11:37 10.0 °C 3.1 °C 1025.6 hPa NE 17.7 km/h 25.7 km/h 62 % 0.0 mm
11:42 10.1 °C 3.4 °C 1025.6 hPa ENE 11.3 km/h 29.0 km/h 63 % 0.0 mm
11:47 10.3 °C 3.8 °C 1025.6 hPa East 8.0 km/h 29.0 km/h 64 % 0.0 mm
11:52 10.4 °C 3.9 °C 1025.6 hPa NE 14.5 km/h 29.0 km/h 64 % 0.0 mm
11:57 10.7 °C 4.2 °C 1025.6 hPa ESE 9.7 km/h 32.2 km/h 64 % 0.0 mm
12:02 10.8 °C 3.6 °C 1025.6 hPa NE 8.0 km/h 32.2 km/h 61 % 0.0 mm
12:12 10.9 °C 3.9 °C 1025.6 hPa NE 12.9 km/h 30.6 km/h 62 % 0.0 mm
12:17 10.9 °C 3.4 °C 1025.3 hPa NE 11.3 km/h 30.6 km/h 60 % 0.0 mm
12:22 11.1 °C 3.9 °C 1025.6 hPa East 12.9 km/h 27.4 km/h 61 % 0.0 mm
12:27 11.3 °C 3.8 °C 1025.6 hPa ENE 14.5 km/h 27.4 km/h 60 % 0.0 mm
12:32 11.3 °C 3.3 °C 1025.6 hPa SE 17.7 km/h 27.4 km/h 58 % 0.0 mm
12:42 11.4 °C 3.2 °C 1025.3 hPa ENE 8.0 km/h 27.4 km/h 57 % 0.0 mm
12:47 11.6 °C 4.6 °C 1025.3 hPa ENE 9.7 km/h 27.4 km/h 62 % 0.0 mm
12:52 11.8 °C 3.3 °C 1025.3 hPa NE 9.7 km/h 27.4 km/h 56 % 0.0 mm
12:57 11.9 °C 3.9 °C 1025.3 hPa East 8.0 km/h 27.4 km/h 58 % 0.0 mm
13:02 12.0 °C 4.2 °C 1025.3 hPa NE 16.1 km/h 24.1 km/h 59 % 0.0 mm
13:12 12.1 °C 3.8 °C 1025.3 hPa NE 9.7 km/h 32.2 km/h 57 % 0.0 mm
13:17 12.3 °C 3.5 °C 1025.3 hPa NE 17.7 km/h 32.2 km/h 55 % 0.0 mm
13:22 12.2 °C 3.4 °C 1025.3 hPa NE 17.7 km/h 25.7 km/h 55 % 0.0 mm
13:27 12.4 °C 3.6 °C 1025.3 hPa SSE 3.2 km/h 25.7 km/h 55 % 0.0 mm
13:32 12.8 °C 4.2 °C 1025.3 hPa East 9.7 km/h 25.7 km/h 56 % 0.0 mm
13:37 12.7 °C 4.1 °C 1025.3 hPa NNE 16.1 km/h 29.0 km/h 56 % 0.0 mm
13:42 12.7 °C 3.1 °C 1025.3 hPa East 16.1 km/h 29.0 km/h 52 % 0.0 mm
13:57 12.9 °C 3.8 °C 1024.9 hPa NE 17.7 km/h 27.4 km/h 54 % 0.0 mm
14:02 12.7 °C 1.4 °C 1025.3 hPa NNE 9.7 km/h 27.4 km/h 46 % 0.0 mm
14:12 13.2 °C 2.4 °C 1025.3 hPa NE 17.7 km/h 30.6 km/h 48 % 0.0 mm
14:17 13.2 °C 3.0 °C 1025.3 hPa NE 11.3 km/h 30.6 km/h 50 % 0.0 mm
14:22 13.3 °C 4.2 °C 1025.3 hPa ENE 6.4 km/h 30.6 km/h 54 % 0.0 mm
14:27 13.4 °C 3.2 °C 1025.3 hPa NE 14.5 km/h 25.7 km/h 50 % 0.0 mm
14:32 13.4 °C 3.5 °C 1025.3 hPa SE 6.4 km/h 24.1 km/h 51 % 0.0 mm
14:42 13.4 °C 3.2 °C 1025.3 hPa NE 19.3 km/h 30.6 km/h 50 % 0.0 mm
14:47 13.4 °C 1.7 °C 1025.3 hPa ENE 11.3 km/h 30.6 km/h 45 % 0.0 mm
14:52 13.5 °C 3.3 °C 1025.3 hPa NE 11.3 km/h 32.2 km/h 50 % 0.0 mm
14:57 13.5 °C 2.1 °C 1025.3 hPa ESE 14.5 km/h 32.2 km/h 46 % 0.0 mm
15:02 13.6 °C 2.2 °C 1025.3 hPa East 6.4 km/h 30.6 km/h 46 % 0.0 mm
15:07 13.6 °C 3.1 °C 1025.3 hPa NNE 6.4 km/h 24.1 km/h 49 % 0.0 mm
15:12 13.9 °C 3.1 °C 1025.3 hPa NNE 25.7 km/h 25.7 km/h 48 % 0.0 mm
15:17 13.9 °C 2.5 °C 1025.3 hPa ENE 12.9 km/h 25.7 km/h 46 % 0.0 mm
15:22 13.8 °C 1.8 °C 1025.3 hPa ENE 14.5 km/h 29.0 km/h 44 % 0.0 mm
15:27 14.1 °C 3.3 °C 1025.3 hPa NE 19.3 km/h 29.0 km/h 48 % 0.0 mm
15:32 14.1 °C 3.0 °C 1025.6 hPa ENE 12.9 km/h 32.2 km/h 47 % 0.0 mm
15:37 14.4 °C 3.2 °C 1025.3 hPa NE 25.7 km/h 32.2 km/h 47 % 0.0 mm
15:42 14.2 °C 2.7 °C 1025.3 hPa WNW 4.8 km/h 32.2 km/h 46 % 0.0 mm
15:47 13.6 °C 1.9 °C 1025.3 hPa NE 11.3 km/h 29.0 km/h 45 % 0.0 mm
15:52 13.2 °C 2.4 °C 1025.3 hPa East 6.4 km/h 29.0 km/h 48 % 0.0 mm
15:57 12.8 °C 1.8 °C 1025.3 hPa NE 8.0 km/h 22.5 km/h 47 % 0.0 mm
16:02 12.9 °C 1.9 °C 1025.3 hPa NNE 19.3 km/h 22.5 km/h 47 % 0.0 mm
16:12 13.1 °C 2.3 °C 1025.3 hPa ENE 9.7 km/h 20.9 km/h 48 % 0.0 mm
16:17 13.0 °C 2.2 °C 1025.3 hPa NE 8.0 km/h 20.9 km/h 48 % 0.0 mm
16:22 12.8 °C 2.6 °C 1025.3 hPa ENE 8.0 km/h 29.0 km/h 50 % 0.0 mm
16:27 12.6 °C 3.0 °C 1025.3 hPa NE 3.2 km/h 29.0 km/h 52 % 0.0 mm
16:32 12.7 °C 3.4 °C 1025.3 hPa NE 9.7 km/h 17.7 km/h 53 % 0.0 mm
16:37 12.6 °C 2.7 °C 1025.3 hPa ENE 6.4 km/h 17.7 km/h 51 % 0.0 mm
16:42 12.5 °C 3.2 °C 1025.3 hPa NE 6.4 km/h 17.7 km/h 53 % 0.0 mm
16:47 12.4 °C 2.8 °C 1025.3 hPa ENE 4.8 km/h 16.1 km/h 52 % 0.0 mm
16:52 12.4 °C 2.5 °C 1025.3 hPa NNW 4.8 km/h 16.1 km/h 51 % 0.0 mm
16:57 12.3 °C 3.0 °C 1025.3 hPa East 1.6 km/h 16.1 km/h 53 % 0.0 mm
17:02 12.2 °C 2.6 °C 1025.3 hPa ENE 4.8 km/h 14.5 km/h 52 % 0.0 mm
17:12 12.1 °C 2.8 °C 1025.3 hPa NE 12.9 km/h 17.7 km/h 53 % 0.0 mm
17:17 12.2 °C 3.4 °C 1025.3 hPa NE 11.3 km/h 17.7 km/h 55 % 0.0 mm
17:22 12.2 °C 2.9 °C 1025.3 hPa North 4.8 km/h 14.5 km/h 53 % 0.0 mm
17:27 12.2 °C 3.4 °C 1025.3 hPa NE 3.2 km/h 14.5 km/h 55 % 0.0 mm
17:32 12.3 °C 3.3 °C 1025.3 hPa East 3.2 km/h 14.5 km/h 54 % 0.0 mm
17:37 12.9 °C 4.1 °C 1025.3 hPa NE 6.4 km/h 9.7 km/h 55 % 0.0 mm
17:42 13.5 °C 4.1 °C 1025.3 hPa SSE 1.6 km/h 12.9 km/h 53 % 0.0 mm
17:52 13.8 °C 3.8 °C 1025.3 hPa North 8.0 km/h 16.1 km/h 51 % 0.0 mm
17:57 13.9 °C 3.4 °C 1025.3 hPa ENE 8.0 km/h 16.1 km/h 49 % 0.0 mm
18:02 13.7 °C 2.9 °C 1025.3 hPa NNE 8.0 km/h 16.1 km/h 48 % 0.0 mm
18:12 13.2 °C 3.6 °C 1025.3 hPa NE 4.8 km/h 17.7 km/h 52 % 0.0 mm
18:17 13.1 °C 2.9 °C 1025.6 hPa NE 4.8 km/h 17.7 km/h 50 % 0.0 mm
18:22 13.1 °C 3.5 °C 1025.6 hPa NE 6.4 km/h 17.7 km/h 52 % 0.0 mm
18:27 13.2 °C 3.3 °C 1025.6 hPa NE 9.7 km/h 16.1 km/h 51 % 0.0 mm
18:32 13.4 °C 3.5 °C 1025.6 hPa ENE 9.7 km/h 16.1 km/h 51 % 0.0 mm
18:37 13.3 °C 3.4 °C 1025.6 hPa SE 3.2 km/h 16.1 km/h 51 % 0.0 mm
18:42 13.1 °C 2.9 °C 1025.6 hPa NNE 8.0 km/h 17.7 km/h 50 % 0.0 mm
18:47 13.0 °C 3.6 °C 1025.6 hPa NNE 11.3 km/h 17.7 km/h 53 % 0.0 mm
18:52 12.8 °C 2.6 °C 1025.6 hPa NE 8.0 km/h 17.7 km/h 50 % 0.0 mm
18:57 12.7 °C 3.4 °C 1026.0 hPa ESE 4.8 km/h 19.3 km/h 53 % 0.0 mm
19:02 12.6 °C 3.5 °C 1025.6 hPa NE 3.2 km/h 19.3 km/h 54 % 0.0 mm
19:07 12.4 °C 3.6 °C 1025.6 hPa SE 1.6 km/h 14.5 km/h 55 % 0.0 mm
19:12 12.3 °C 3.3 °C 1025.6 hPa NE 6.4 km/h 14.5 km/h 54 % 0.0 mm
19:17 12.2 °C 3.9 °C 1026.0 hPa NNE 3.2 km/h 12.9 km/h 57 % 0.0 mm
19:22 12.1 °C 3.8 °C 1026.0 hPa NNE 4.8 km/h 12.9 km/h 57 % 0.0 mm
19:32 11.8 °C 3.3 °C 1026.0 hPa NNE 3.2 km/h 11.3 km/h 56 % 0.0 mm
19:42 11.6 °C 3.6 °C 1026.0 hPa NE 4.8 km/h 16.1 km/h 58 % 0.0 mm
19:52 11.3 °C 3.3 °C 1026.0 hPa NNE 1.6 km/h 8.0 km/h 58 % 0.0 mm
19:57 11.1 °C 4.1 °C 1026.0 hPa NNE 1.6 km/h 8.0 km/h 62 % 0.0 mm
20:02 10.8 °C 4.0 °C 1026.0 hPa Calm   6.4 km/h 63 % 0.0 mm
20:07 10.6 °C 4.3 °C 1026.0 hPa Calm   6.4 km/h 65 % 0.0 mm
20:12 10.5 °C 3.8 °C 1026.3 hPa SE 1.6 km/h 8.0 km/h 63 % 0.0 mm
20:17 10.5 °C 3.5 °C 1026.0 hPa NNE 3.2 km/h 8.0 km/h 62 % 0.0 mm
20:22 10.4 °C 3.4 °C 1026.3 hPa NE 3.2 km/h 8.0 km/h 62 % 0.0 mm
20:27 10.2 °C 3.5 °C 1026.3 hPa NE 1.6 km/h 9.7 km/h 63 % 0.0 mm
20:32 10.0 °C 3.5 °C 1026.3 hPa NE 1.6 km/h 9.7 km/h 64 % 0.0 mm
20:37 9.6 °C 3.3 °C 1026.3 hPa Calm   9.7 km/h 65 % 0.0 mm
20:42 9.2 °C 3.6 °C 1026.3 hPa Calm   8.0 km/h 68 % 0.0 mm
20:47 8.9 °C 3.7 °C 1026.6 hPa Calm   1.6 km/h 70 % 0.0 mm
20:52 8.6 °C 3.8 °C 1026.6 hPa Calm     72 % 0.0 mm
20:57 8.2 °C 3.6 °C 1026.6 hPa Calm     73 % 0.0 mm
21:02 7.9 °C 3.7 °C 1026.6 hPa Calm     75 % 0.0 mm
21:07 7.6 °C 3.6 °C 1026.6 hPa Calm     76 % 0.0 mm
21:12 7.3 °C 3.7 °C 1026.6 hPa Calm     78 % 0.0 mm
21:17 6.9 °C 3.5 °C 1026.6 hPa Calm     79 % 0.0 mm
21:22 6.6 °C 3.2 °C 1026.6 hPa Calm     79 % 0.0 mm
21:27 6.3 °C 2.9 °C 1026.6 hPa Calm     79 % 0.0 mm
21:32 6.0 °C 3.0 °C 1027.0 hPa Calm     81 % 0.0 mm
21:42 5.6 °C 3.1 °C 1027.0 hPa Calm     84 % 0.0 mm
21:47 5.6 °C 3.1 °C 1027.0 hPa Calm     84 % 0.0 mm
21:52 5.5 °C 2.8 °C 1027.0 hPa Calm     83 % 0.0 mm
21:57 5.4 °C 2.7 °C 1027.0 hPa Calm     83 % 0.0 mm
22:02 5.3 °C 3.0 °C 1027.0 hPa Calm     85 % 0.0 mm
22:17 4.8 °C 2.7 °C 1027.0 hPa Calm     86 % 0.0 mm
22:22 4.7 °C 2.6 °C 1027.0 hPa Calm     86 % 0.0 mm
22:27 4.7 °C 2.6 °C 1027.0 hPa Calm     86 % 0.0 mm
22:32 4.7 °C 2.6 °C 1027.0 hPa Calm     86 % 0.0 mm
22:37 4.7 °C 2.6 °C 1027.3 hPa Calm     86 % 0.0 mm
22:42 4.6 °C 2.5 °C 1027.0 hPa Calm     86 % 0.0 mm
22:47 4.4 °C 2.6 °C 1027.0 hPa Calm     88 % 0.0 mm
22:52 4.4 °C 2.6 °C 1027.0 hPa Calm     88 % 0.0 mm
22:57 4.3 °C 2.5 °C 1027.0 hPa Calm     88 % 0.0 mm
23:02 4.3 °C 2.3 °C 1027.3 hPa Calm     87 % 0.0 mm
23:12 3.9 °C 2.1 °C 1027.3 hPa Calm     88 % 0.0 mm
23:17 3.8 °C 2.2 °C 1027.0 hPa Calm     89 % 0.0 mm
23:22 3.8 °C 2.3 °C 1027.0 hPa Calm     90 % 0.0 mm
23:27 4.1 °C 2.5 °C 1027.0 hPa Calm     89 % 0.0 mm
23:32 4.3 °C 2.5 °C 1027.0 hPa Calm     88 % 0.0 mm
23:42 4.6 °C 2.5 °C 1027.0 hPa Calm     86 % 0.0 mm
23:47 4.6 °C 2.3 °C 1027.0 hPa Calm     85 % 0.0 mm
23:52 4.7 °C 2.4 °C 1027.0 hPa Calm     85 % 0.0 mm
23:57 4.8 °C 2.3 °C 1027.0 hPa Calm     84 % 0.0 mm
Meteo18
Compliments of Weather Underground - 4 mb

Script developed by  Jim McMurry - jmcmurry@mwt.net Adapted for the template by  Wim van der Kuil - Leuven-Template.eu

You find our weather info also at:

European Weather Network

Weather Underground

Equipment we use:

Weather-station
Davis Vue

Weather-program
Meteohub

Weather-server
Raspberry PI 2 B+

Provider
1 and 1

Davis Vue

Meteohub

Raspberry PI 2 B+

1 and 1